sensor_id;sensor_type;location;lat;lon;timestamp;P1;durP1;ratioP1;P2;durP2;ratioP2
28836;SDS011;50669;50.982;11.022;2023-10-13T00:02:00;2.75;;;2.42;;
28836;SDS011;50669;50.982;11.022;2023-10-13T00:04:28;3.67;;;2.70;;
28836;SDS011;50669;50.982;11.022;2023-10-13T00:06:56;3.42;;;2.90;;
28836;SDS011;50669;50.982;11.022;2023-10-13T00:09:25;3.10;;;2.75;;
28836;SDS011;50669;50.982;11.022;2023-10-13T00:11:57;3.00;;;2.70;;
28836;SDS011;50669;50.982;11.022;2023-10-13T00:14:23;3.30;;;2.75;;
28836;SDS011;50669;50.982;11.022;2023-10-13T00:17:03;3.08;;;2.63;;
28836;SDS011;50669;50.982;11.022;2023-10-13T00:19:36;3.17;;;2.60;;
28836;SDS011;50669;50.982;11.022;2023-10-13T00:22:04;3.00;;;2.70;;
28836;SDS011;50669;50.982;11.022;2023-10-13T00:24:35;3.20;;;2.50;;
28836;SDS011;50669;50.982;11.022;2023-10-13T00:27:11;2.92;;;2.60;;
28836;SDS011;50669;50.982;11.022;2023-10-13T00:29:58;3.40;;;2.80;;
28836;SDS011;50669;50.982;11.022;2023-10-13T00:32:49;3.20;;;2.60;;
28836;SDS011;50669;50.982;11.022;2023-10-13T00:35:30;3.20;;;2.83;;
28836;SDS011;50669;50.982;11.022;2023-10-13T00:38:03;3.00;;;2.50;;
28836;SDS011;50669;50.982;11.022;2023-10-13T00:40:29;3.10;;;2.65;;
28836;SDS011;50669;50.982;11.022;2023-10-13T00:42:58;3.08;;;2.70;;
28836;SDS011;50669;50.982;11.022;2023-10-13T00:45:44;2.88;;;2.28;;
28836;SDS011;50669;50.982;11.022;2023-10-13T00:48:19;2.70;;;2.35;;
28836;SDS011;50669;50.982;11.022;2023-10-13T00:50:58;3.47;;;2.65;;
28836;SDS011;50669;50.982;11.022;2023-10-13T00:53:32;2.80;;;2.60;;
28836;SDS011;50669;50.982;11.022;2023-10-13T00:56:05;2.63;;;2.30;;
28836;SDS011;50669;50.982;11.022;2023-10-13T00:58:36;2.58;;;2.38;;
28836;SDS011;50669;50.982;11.022;2023-10-13T01:01:05;2.97;;;2.35;;
28836;SDS011;50669;50.982;11.022;2023-10-13T01:03:54;3.38;;;2.65;;
28836;SDS011;50669;50.982;11.022;2023-10-13T01:06:35;3.63;;;2.88;;
28836;SDS011;50669;50.982;11.022;2023-10-13T01:14:13;2.55;;;2.20;;
28836;SDS011;50669;50.982;11.022;2023-10-13T01:16:43;2.63;;;2.35;;
28836;SDS011;50669;50.982;11.022;2023-10-13T01:19:13;3.03;;;2.33;;
28836;SDS011;50669;50.982;11.022;2023-10-13T01:21:49;2.60;;;2.35;;
28836;SDS011;50669;50.982;11.022;2023-10-13T01:24:23;2.80;;;2.47;;
28836;SDS011;50669;50.982;11.022;2023-10-13T01:26:53;2.65;;;2.40;;
28836;SDS011;50669;50.982;11.022;2023-10-13T01:29:21;2.75;;;2.28;;
28836;SDS011;50669;50.982;11.022;2023-10-13T01:31:54;2.40;;;2.00;;
28836;SDS011;50669;50.982;11.022;2023-10-13T01:34:25;2.30;;;2.10;;
28836;SDS011;50669;50.982;11.022;2023-10-13T01:36:56;2.92;;;2.53;;
28836;SDS011;50669;50.982;11.022;2023-10-13T01:39:22;3.50;;;2.67;;
28836;SDS011;50669;50.982;11.022;2023-10-13T01:41:55;2.88;;;2.30;;
28836;SDS011;50669;50.982;11.022;2023-10-13T01:44:21;2.40;;;2.20;;
28836;SDS011;50669;50.982;11.022;2023-10-13T01:46:49;3.13;;;2.60;;
28836;SDS011;50669;50.982;11.022;2023-10-13T01:49:16;2.70;;;2.22;;
28836;SDS011;50669;50.982;11.022;2023-10-13T01:51:41;2.72;;;2.30;;
28836;SDS011;50669;50.982;11.022;2023-10-13T01:54:15;3.33;;;2.60;;
28836;SDS011;50669;50.982;11.022;2023-10-13T01:56:45;2.92;;;2.40;;
28836;SDS011;50669;50.982;11.022;2023-10-13T01:59:13;2.40;;;2.20;;
28836;SDS011;50669;50.982;11.022;2023-10-13T02:01:44;2.55;;;2.17;;
28836;SDS011;50669;50.982;11.022;2023-10-13T02:04:09;2.30;;;2.10;;
28836;SDS011;50669;50.982;11.022;2023-10-13T02:06:37;3.92;;;2.58;;
28836;SDS011;50669;50.982;11.022;2023-10-13T02:11:39;2.30;;;2.10;;
28836;SDS011;50669;50.982;11.022;2023-10-13T02:14:10;2.88;;;2.42;;
28836;SDS011;50669;50.982;11.022;2023-10-13T02:16:41;3.72;;;2.17;;
28836;SDS011;50669;50.982;11.022;2023-10-13T02:19:07;3.38;;;2.53;;
28836;SDS011;50669;50.982;11.022;2023-10-13T02:21:34;2.45;;;2.25;;
28836;SDS011;50669;50.982;11.022;2023-10-13T02:24:09;2.60;;;2.40;;
28836;SDS011;50669;50.982;11.022;2023-10-13T02:26:46;2.13;;;1.92;;
28836;SDS011;50669;50.982;11.022;2023-10-13T02:29:14;3.65;;;2.38;;
28836;SDS011;50669;50.982;11.022;2023-10-13T02:31:43;2.40;;;2.20;;
28836;SDS011;50669;50.982;11.022;2023-10-13T02:34:20;2.75;;;2.20;;
28836;SDS011;50669;50.982;11.022;2023-10-13T02:36:47;2.72;;;2.28;;
28836;SDS011;50669;50.982;11.022;2023-10-13T02:39:16;2.35;;;2.15;;
28836;SDS011;50669;50.982;11.022;2023-10-13T02:41:48;2.65;;;2.22;;
28836;SDS011;50669;50.982;11.022;2023-10-13T02:44:16;3.05;;;2.38;;
28836;SDS011;50669;50.982;11.022;2023-10-13T02:46:56;3.00;;;2.63;;
28836;SDS011;50669;50.982;11.022;2023-10-13T02:49:25;2.63;;;2.17;;
28836;SDS011;50669;50.982;11.022;2023-10-13T02:51:56;2.58;;;2.10;;
28836;SDS011;50669;50.982;11.022;2023-10-13T02:54:25;2.55;;;2.22;;
28836;SDS011;50669;50.982;11.022;2023-10-13T02:56:56;2.38;;;1.90;;
28836;SDS011;50669;50.982;11.022;2023-10-13T02:59:23;2.50;;;2.30;;
28836;SDS011;50669;50.982;11.022;2023-10-13T03:02:07;2.28;;;2.08;;
28836;SDS011;50669;50.982;11.022;2023-10-13T03:04:52;2.88;;;2.35;;
28836;SDS011;50669;50.982;11.022;2023-10-13T03:07:24;2.88;;;2.40;;
28836;SDS011;50669;50.982;11.022;2023-10-13T03:09:53;2.72;;;2.30;;
28836;SDS011;50669;50.982;11.022;2023-10-13T03:12:25;2.20;;;1.92;;
28836;SDS011;50669;50.982;11.022;2023-10-13T03:14:51;2.30;;;2.00;;
28836;SDS011;50669;50.982;11.022;2023-10-13T03:17:22;2.30;;;1.90;;
28836;SDS011;50669;50.982;11.022;2023-10-13T03:19:58;2.60;;;2.20;;
28836;SDS011;50669;50.982;11.022;2023-10-13T03:22:24;2.55;;;2.20;;
28836;SDS011;50669;50.982;11.022;2023-10-13T03:25:00;2.00;;;1.80;;
28836;SDS011;50669;50.982;11.022;2023-10-13T03:27:30;1.98;;;1.88;;
28836;SDS011;50669;50.982;11.022;2023-10-13T03:30:16;2.33;;;2.10;;
28836;SDS011;50669;50.982;11.022;2023-10-13T03:32:42;2.25;;;1.90;;
28836;SDS011;50669;50.982;11.022;2023-10-13T03:35:11;2.20;;;1.85;;
28836;SDS011;50669;50.982;11.022;2023-10-13T03:37:37;2.40;;;2.20;;
28836;SDS011;50669;50.982;11.022;2023-10-13T03:40:09;2.88;;;2.13;;
28836;SDS011;50669;50.982;11.022;2023-10-13T03:42:48;2.42;;;2.20;;
28836;SDS011;50669;50.982;11.022;2023-10-13T03:45:24;2.33;;;2.05;;
28836;SDS011;50669;50.982;11.022;2023-10-13T03:47:50;2.25;;;2.05;;
28836;SDS011;50669;50.982;11.022;2023-10-13T03:50:17;2.53;;;2.22;;
28836;SDS011;50669;50.982;11.022;2023-10-13T03:52:54;3.22;;;2.28;;
28836;SDS011;50669;50.982;11.022;2023-10-13T03:55:25;2.67;;;2.20;;
28836;SDS011;50669;50.982;11.022;2023-10-13T03:57:59;2.25;;;2.05;;
28836;SDS011;50669;50.982;11.022;2023-10-13T04:00:25;2.10;;;1.90;;
28836;SDS011;50669;50.982;11.022;2023-10-13T04:02:54;2.45;;;2.25;;
28836;SDS011;50669;50.982;11.022;2023-10-13T04:05:36;2.30;;;2.10;;
28836;SDS011;50669;50.982;11.022;2023-10-13T04:08:07;2.13;;;1.92;;
28836;SDS011;50669;50.982;11.022;2023-10-13T04:10:54;2.75;;;2.17;;
28836;SDS011;50669;50.982;11.022;2023-10-13T04:13:21;2.50;;;2.20;;
28836;SDS011;50669;50.982;11.022;2023-10-13T04:16:09;2.75;;;2.40;;
28836;SDS011;50669;50.982;11.022;2023-10-13T04:18:47;2.28;;;2.05;;
28836;SDS011;50669;50.982;11.022;2023-10-13T04:21:35;2.00;;;1.80;;
28836;SDS011;50669;50.982;11.022;2023-10-13T04:24:08;2.33;;;2.03;;
28836;SDS011;50669;50.982;11.022;2023-10-13T04:26:43;3.03;;;1.90;;
28836;SDS011;50669;50.982;11.022;2023-10-13T04:29:36;2.33;;;2.10;;
28836;SDS011;50669;50.982;11.022;2023-10-13T04:32:21;2.28;;;1.88;;
28836;SDS011;50669;50.982;11.022;2023-10-13T04:35:04;2.57;;;2.13;;
28836;SDS011;50669;50.982;11.022;2023-10-13T04:37:39;2.53;;;2.00;;
28836;SDS011;50669;50.982;11.022;2023-10-13T04:40:23;1.90;;;1.70;;
28836;SDS011;50669;50.982;11.022;2023-10-13T04:42:53;2.40;;;2.20;;
28836;SDS011;50669;50.982;11.022;2023-10-13T04:45:24;2.08;;;1.88;;
28836;SDS011;50669;50.982;11.022;2023-10-13T04:48:03;2.35;;;1.98;;
28836;SDS011;50669;50.982;11.022;2023-10-13T04:50:48;2.00;;;1.80;;
28836;SDS011;50669;50.982;11.022;2023-10-13T04:53:24;2.38;;;2.13;;
28836;SDS011;50669;50.982;11.022;2023-10-13T04:55:56;2.00;;;1.80;;
28836;SDS011;50669;50.982;11.022;2023-10-13T04:58:29;2.17;;;1.98;;
28836;SDS011;50669;50.982;11.022;2023-10-13T05:01:03;2.17;;;1.98;;
28836;SDS011;50669;50.982;11.022;2023-10-13T05:03:48;1.90;;;1.70;;
28836;SDS011;50669;50.982;11.022;2023-10-13T05:06:37;2.65;;;2.05;;
28836;SDS011;50669;50.982;11.022;2023-10-13T05:09:09;2.20;;;1.85;;
28836;SDS011;50669;50.982;11.022;2023-10-13T05:11:56;2.15;;;1.95;;
28836;SDS011;50669;50.982;11.022;2023-10-13T05:14:40;1.90;;;1.75;;
28836;SDS011;50669;50.982;11.022;2023-10-13T05:17:24;1.92;;;1.80;;
28836;SDS011;50669;50.982;11.022;2023-10-13T05:20:08;2.03;;;1.77;;
28836;SDS011;50669;50.982;11.022;2023-10-13T05:22:53;2.67;;;2.20;;
28836;SDS011;50669;50.982;11.022;2023-10-13T05:25:40;2.40;;;2.20;;
28836;SDS011;50669;50.982;11.022;2023-10-13T05:28:24;2.22;;;2.03;;
28836;SDS011;50669;50.982;11.022;2023-10-13T05:31:08;2.22;;;2.03;;
28836;SDS011;50669;50.982;11.022;2023-10-13T05:33:53;2.05;;;1.85;;
28836;SDS011;50669;50.982;11.022;2023-10-13T05:36:37;2.92;;;2.08;;
28836;SDS011;50669;50.982;11.022;2023-10-13T05:39:23;2.60;;;1.85;;
28836;SDS011;50669;50.982;11.022;2023-10-13T05:42:07;2.33;;;1.95;;
28836;SDS011;50669;50.982;11.022;2023-10-13T05:44:54;2.42;;;2.08;;
28836;SDS011;50669;50.982;11.022;2023-10-13T05:47:38;2.17;;;1.98;;
28836;SDS011;50669;50.982;11.022;2023-10-13T05:50:15;1.67;;;1.58;;
28836;SDS011;50669;50.982;11.022;2023-10-13T05:52:50;2.80;;;2.00;;
28836;SDS011;50669;50.982;11.022;2023-10-13T05:55:22;2.45;;;1.95;;
28836;SDS011;50669;50.982;11.022;2023-10-13T05:58:13;2.15;;;1.95;;
28836;SDS011;50669;50.982;11.022;2023-10-13T06:00:57;1.90;;;1.65;;
28836;SDS011;50669;50.982;11.022;2023-10-13T06:03:41;2.15;;;1.95;;
28836;SDS011;50669;50.982;11.022;2023-10-13T06:06:26;2.45;;;2.00;;
28836;SDS011;50669;50.982;11.022;2023-10-13T06:09:13;1.98;;;1.75;;
28836;SDS011;50669;50.982;11.022;2023-10-13T06:12:00;2.47;;;2.05;;
28836;SDS011;50669;50.982;11.022;2023-10-13T06:14:45;2.42;;;1.92;;
28836;SDS011;50669;50.982;11.022;2023-10-13T06:17:30;1.95;;;1.60;;
28836;SDS011;50669;50.982;11.022;2023-10-13T06:20:14;2.00;;;1.77;;
28836;SDS011;50669;50.982;11.022;2023-10-13T06:23:00;2.00;;;1.80;;
28836;SDS011;50669;50.982;11.022;2023-10-13T06:25:51;2.03;;;1.85;;
28836;SDS011;50669;50.982;11.022;2023-10-13T06:28:36;2.30;;;2.08;;
28836;SDS011;50669;50.982;11.022;2023-10-13T06:31:10;1.90;;;1.80;;
28836;SDS011;50669;50.982;11.022;2023-10-13T06:33:51;2.40;;;2.05;;
28836;SDS011;50669;50.982;11.022;2023-10-13T06:36:17;1.90;;;1.75;;
28836;SDS011;50669;50.982;11.022;2023-10-13T06:38:45;2.55;;;2.00;;
28836;SDS011;50669;50.982;11.022;2023-10-13T06:41:40;2.67;;;1.80;;
28836;SDS011;50669;50.982;11.022;2023-10-13T06:44:07;2.47;;;1.95;;
28836;SDS011;50669;50.982;11.022;2023-10-13T06:46:40;2.00;;;1.80;;
28836;SDS011;50669;50.982;11.022;2023-10-13T06:49:05;3.75;;;1.77;;
28836;SDS011;50669;50.982;11.022;2023-10-13T06:51:34;1.73;;;1.63;;
28836;SDS011;50669;50.982;11.022;2023-10-13T06:54:03;2.20;;;1.80;;
28836;SDS011;50669;50.982;11.022;2023-10-13T06:56:35;1.70;;;1.60;;
28836;SDS011;50669;50.982;11.022;2023-10-13T06:59:04;2.00;;;1.73;;
28836;SDS011;50669;50.982;11.022;2023-10-13T07:01:31;2.13;;;1.92;;
28836;SDS011;50669;50.982;11.022;2023-10-13T07:04:03;1.70;;;1.58;;
28836;SDS011;50669;50.982;11.022;2023-10-13T07:06:40;3.15;;;1.88;;
28836;SDS011;50669;50.982;11.022;2023-10-13T07:09:16;2.50;;;1.90;;
28836;SDS011;50669;50.982;11.022;2023-10-13T07:12:00;1.98;;;1.63;;
28836;SDS011;50669;50.982;11.022;2023-10-13T07:14:31;2.20;;;1.90;;
28836;SDS011;50669;50.982;11.022;2023-10-13T07:17:04;2.13;;;1.77;;
28836;SDS011;50669;50.982;11.022;2023-10-13T07:19:32;2.10;;;1.80;;
28836;SDS011;50669;50.982;11.022;2023-10-13T07:22:00;1.88;;;1.60;;
28836;SDS011;50669;50.982;11.022;2023-10-13T07:24:45;1.92;;;1.77;;
28836;SDS011;50669;50.982;11.022;2023-10-13T07:27:21;2.60;;;1.88;;
28836;SDS011;50669;50.982;11.022;2023-10-13T07:29:56;2.13;;;1.80;;
28836;SDS011;50669;50.982;11.022;2023-10-13T07:32:38;1.85;;;1.67;;
28836;SDS011;50669;50.982;11.022;2023-10-13T07:35:10;2.20;;;1.83;;
28836;SDS011;50669;50.982;11.022;2023-10-13T07:37:46;1.83;;;1.65;;
28836;SDS011;50669;50.982;11.022;2023-10-13T07:40:17;1.85;;;1.63;;
28836;SDS011;50669;50.982;11.022;2023-10-13T07:42:55;2.20;;;1.77;;
28836;SDS011;50669;50.982;11.022;2023-10-13T07:45:37;2.00;;;1.65;;
28836;SDS011;50669;50.982;11.022;2023-10-13T07:48:06;2.28;;;1.90;;
28836;SDS011;50669;50.982;11.022;2023-10-13T07:50:45;2.25;;;1.90;;
28836;SDS011;50669;50.982;11.022;2023-10-13T07:53:23;2.40;;;2.20;;
28836;SDS011;50669;50.982;11.022;2023-10-13T07:55:49;2.05;;;1.80;;
28836;SDS011;50669;50.982;11.022;2023-10-13T07:58:27;1.77;;;1.67;;
28836;SDS011;50669;50.982;11.022;2023-10-13T08:00:53;2.05;;;1.60;;
28836;SDS011;50669;50.982;11.022;2023-10-13T08:03:31;2.25;;;1.95;;
28836;SDS011;50669;50.982;11.022;2023-10-13T08:06:16;1.73;;;1.63;;
28836;SDS011;50669;50.982;11.022;2023-10-13T08:11:15;2.00;;;1.40;;
28836;SDS011;50669;50.982;11.022;2023-10-13T08:13:48;2.17;;;1.83;;
28836;SDS011;50669;50.982;11.022;2023-10-13T08:16:21;2.58;;;1.63;;
28836;SDS011;50669;50.982;11.022;2023-10-13T08:18:51;2.03;;;1.70;;
28836;SDS011;50669;50.982;11.022;2023-10-13T08:21:17;2.10;;;1.90;;
28836;SDS011;50669;50.982;11.022;2023-10-13T08:23:52;1.92;;;1.70;;
28836;SDS011;50669;50.982;11.022;2023-10-13T08:26:23;2.10;;;1.83;;
28836;SDS011;50669;50.982;11.022;2023-10-13T08:29:11;1.73;;;1.63;;
28836;SDS011;50669;50.982;11.022;2023-10-13T08:31:52;1.98;;;1.80;;
28836;SDS011;50669;50.982;11.022;2023-10-13T08:34:30;2.03;;;1.80;;
28836;SDS011;50669;50.982;11.022;2023-10-13T08:37:11;1.75;;;1.35;;
28836;SDS011;50669;50.982;11.022;2023-10-13T08:39:59;1.80;;;1.60;;
28836;SDS011;50669;50.982;11.022;2023-10-13T08:50:37;1.90;;;1.67;;
28836;SDS011;50669;50.982;11.022;2023-10-13T08:56:01;2.03;;;1.70;;
28836;SDS011;50669;50.982;11.022;2023-10-13T08:58:30;1.85;;;1.67;;
28836;SDS011;50669;50.982;11.022;2023-10-13T09:04:11;1.70;;;1.55;;
28836;SDS011;50669;50.982;11.022;2023-10-13T09:06:57;1.90;;;1.55;;
28836;SDS011;50669;50.982;11.022;2023-10-13T09:12:25;2.42;;;1.83;;
28836;SDS011;50669;50.982;11.022;2023-10-13T09:15:10;1.80;;;1.50;;
28836;SDS011;50669;50.982;11.022;2023-10-13T09:17:41;1.70;;;1.60;;
28836;SDS011;50669;50.982;11.022;2023-10-13T09:20:30;2.40;;;1.65;;
28836;SDS011;50669;50.982;11.022;2023-10-13T09:23:13;1.83;;;1.63;;
28836;SDS011;50669;50.982;11.022;2023-10-13T09:25:49;1.88;;;1.73;;
28836;SDS011;50669;50.982;11.022;2023-10-13T09:28:24;1.98;;;1.75;;
28836;SDS011;50669;50.982;11.022;2023-10-13T09:30:54;1.63;;;1.52;;
28836;SDS011;50669;50.982;11.022;2023-10-13T09:33:24;1.92;;;1.75;;
28836;SDS011;50669;50.982;11.022;2023-10-13T09:36:15;1.70;;;1.60;;
28836;SDS011;50669;50.982;11.022;2023-10-13T09:38:44;1.73;;;1.63;;
28836;SDS011;50669;50.982;11.022;2023-10-13T09:41:35;2.28;;;1.48;;
28836;SDS011;50669;50.982;11.022;2023-10-13T09:44:02;2.63;;;1.65;;
28836;SDS011;50669;50.982;11.022;2023-10-13T09:46:28;1.45;;;1.33;;
28836;SDS011;50669;50.982;11.022;2023-10-13T09:48:58;2.10;;;1.60;;
28836;SDS011;50669;50.982;11.022;2023-10-13T09:51:30;1.70;;;1.60;;
28836;SDS011;50669;50.982;11.022;2023-10-13T09:56:53;1.70;;;1.50;;
28836;SDS011;50669;50.982;11.022;2023-10-13T09:59:35;1.75;;;1.60;;
28836;SDS011;50669;50.982;11.022;2023-10-13T10:02:16;1.52;;;1.30;;
28836;SDS011;50669;50.982;11.022;2023-10-13T10:04:59;1.50;;;1.20;;
28836;SDS011;50669;50.982;11.022;2023-10-13T10:07:55;2.10;;;1.58;;
28836;SDS011;50669;50.982;11.022;2023-10-13T10:17:06;1.20;;;1.10;;
28836;SDS011;50669;50.982;11.022;2023-10-13T10:19:49;2.03;;;1.73;;
28836;SDS011;50669;50.982;11.022;2023-10-13T10:22:30;1.98;;;1.58;;
28836;SDS011;50669;50.982;11.022;2023-10-13T10:25:04;1.92;;;1.70;;
28836;SDS011;50669;50.982;11.022;2023-10-13T10:27:57;1.92;;;1.60;;
28836;SDS011;50669;50.982;11.022;2023-10-13T10:30:24;1.90;;;1.70;;
28836;SDS011;50669;50.982;11.022;2023-10-13T10:32:59;1.92;;;1.60;;
28836;SDS011;50669;50.982;11.022;2023-10-13T10:35:26;1.95;;;1.77;;
28836;SDS011;50669;50.982;11.022;2023-10-13T10:37:57;1.73;;;1.60;;
28836;SDS011;50669;50.982;11.022;2023-10-13T10:40:37;1.67;;;1.52;;
28836;SDS011;50669;50.982;11.022;2023-10-13T10:43:28;1.63;;;1.52;;
28836;SDS011;50669;50.982;11.022;2023-10-13T10:46:13;1.60;;;1.50;;
28836;SDS011;50669;50.982;11.022;2023-10-13T10:48:41;1.88;;;1.60;;
28836;SDS011;50669;50.982;11.022;2023-10-13T10:51:10;1.42;;;1.33;;
28836;SDS011;50669;50.982;11.022;2023-10-13T10:53:40;1.63;;;1.52;;
28836;SDS011;50669;50.982;11.022;2023-10-13T10:56:10;1.50;;;1.33;;
28836;SDS011;50669;50.982;11.022;2023-10-13T10:58:48;1.90;;;1.67;;
28836;SDS011;50669;50.982;11.022;2023-10-13T11:01:25;1.58;;;1.48;;
28836;SDS011;50669;50.982;11.022;2023-10-13T11:04:08;1.60;;;1.50;;
28836;SDS011;50669;50.982;11.022;2023-10-13T11:06:44;1.65;;;1.55;;
28836;SDS011;50669;50.982;11.022;2023-10-13T11:14:31;2.10;;;1.45;;
28836;SDS011;50669;50.982;11.022;2023-10-13T11:16:58;1.60;;;1.48;;
28836;SDS011;50669;50.982;11.022;2023-10-13T11:19:38;1.30;;;1.20;;
28836;SDS011;50669;50.982;11.022;2023-10-13T11:22:09;1.42;;;1.33;;
28836;SDS011;50669;50.982;11.022;2023-10-13T11:24:57;1.65;;;1.55;;
28836;SDS011;50669;50.982;11.022;2023-10-13T11:27:34;1.70;;;1.60;;
28836;SDS011;50669;50.982;11.022;2023-10-13T11:30:19;1.50;;;1.40;;
28836;SDS011;50669;50.982;11.022;2023-10-13T11:35:27;2.08;;;1.50;;
28836;SDS011;50669;50.982;11.022;2023-10-13T11:38:13;1.58;;;1.48;;
28836;SDS011;50669;50.982;11.022;2023-10-13T11:40:41;1.58;;;1.48;;
28836;SDS011;50669;50.982;11.022;2023-10-13T11:43:24;1.75;;;1.50;;
28836;SDS011;50669;50.982;11.022;2023-10-13T11:45:51;1.88;;;1.55;;
28836;SDS011;50669;50.982;11.022;2023-10-13T11:48:41;1.35;;;1.25;;
28836;SDS011;50669;50.982;11.022;2023-10-13T11:53:49;1.70;;;1.50;;
28836;SDS011;50669;50.982;11.022;2023-10-13T11:56:18;1.60;;;1.50;;
28836;SDS011;50669;50.982;11.022;2023-10-13T11:58:48;1.67;;;1.58;;
28836;SDS011;50669;50.982;11.022;2023-10-13T12:01:16;2.28;;;1.58;;
28836;SDS011;50669;50.982;11.022;2023-10-13T12:03:44;2.50;;;1.95;;
28836;SDS011;50669;50.982;11.022;2023-10-13T12:06:33;1.70;;;1.60;;
28836;SDS011;50669;50.982;11.022;2023-10-13T12:09:02;1.95;;;1.55;;
28836;SDS011;50669;50.982;11.022;2023-10-13T12:11:43;1.88;;;1.70;;
28836;SDS011;50669;50.982;11.022;2023-10-13T12:14:16;1.63;;;1.52;;
28836;SDS011;50669;50.982;11.022;2023-10-13T12:17:02;2.05;;;1.63;;
28836;SDS011;50669;50.982;11.022;2023-10-13T12:19:35;1.65;;;1.40;;
28836;SDS011;50669;50.982;11.022;2023-10-13T12:22:01;1.92;;;1.70;;
28836;SDS011;50669;50.982;11.022;2023-10-13T12:24:34;2.08;;;1.70;;
28836;SDS011;50669;50.982;11.022;2023-10-13T12:26:59;2.00;;;1.80;;
28836;SDS011;50669;50.982;11.022;2023-10-13T12:29:25;2.08;;;1.80;;
28836;SDS011;50669;50.982;11.022;2023-10-13T12:31:55;2.10;;;1.77;;
28836;SDS011;50669;50.982;11.022;2023-10-13T12:34:38;1.70;;;1.60;;
28836;SDS011;50669;50.982;11.022;2023-10-13T12:37:41;2.15;;;1.55;;
28836;SDS011;50669;50.982;11.022;2023-10-13T12:40:14;1.70;;;1.60;;
28836;SDS011;50669;50.982;11.022;2023-10-13T12:43:00;2.20;;;2.00;;
28836;SDS011;50669;50.982;11.022;2023-10-13T12:45:48;1.92;;;1.50;;
28836;SDS011;50669;50.982;11.022;2023-10-13T12:48:36;1.50;;;1.40;;
28836;SDS011;50669;50.982;11.022;2023-10-13T12:51:21;1.83;;;1.70;;
28836;SDS011;50669;50.982;11.022;2023-10-13T12:53:56;1.75;;;1.45;;
28836;SDS011;50669;50.982;11.022;2023-10-13T12:56:29;2.40;;;1.98;;
28836;SDS011;50669;50.982;11.022;2023-10-13T12:58:55;2.25;;;1.75;;
28836;SDS011;50669;50.982;11.022;2023-10-13T13:01:22;1.95;;;1.50;;
28836;SDS011;50669;50.982;11.022;2023-10-13T13:03:57;1.85;;;1.67;;
28836;SDS011;50669;50.982;11.022;2023-10-13T13:06:24;1.63;;;1.52;;
28836;SDS011;50669;50.982;11.022;2023-10-13T13:08:55;1.52;;;1.27;;
28836;SDS011;50669;50.982;11.022;2023-10-13T13:11:30;1.70;;;1.60;;
28836;SDS011;50669;50.982;11.022;2023-10-13T13:14:02;1.75;;;1.65;;
28836;SDS011;50669;50.982;11.022;2023-10-13T13:16:28;1.70;;;1.60;;
28836;SDS011;50669;50.982;11.022;2023-10-13T13:18:55;2.33;;;1.67;;
28836;SDS011;50669;50.982;11.022;2023-10-13T13:21:23;1.48;;;1.38;;
28836;SDS011;50669;50.982;11.022;2023-10-13T13:23:52;1.60;;;1.50;;
28836;SDS011;50669;50.982;11.022;2023-10-13T13:26:20;2.30;;;1.60;;
28836;SDS011;50669;50.982;11.022;2023-10-13T13:28:47;2.22;;;1.75;;
28836;SDS011;50669;50.982;11.022;2023-10-13T13:31:22;1.85;;;1.70;;
28836;SDS011;50669;50.982;11.022;2023-10-13T13:33:54;1.80;;;1.55;;
28836;SDS011;50669;50.982;11.022;2023-10-13T13:36:21;2.55;;;1.48;;
28836;SDS011;50669;50.982;11.022;2023-10-13T13:38:47;1.85;;;1.67;;
28836;SDS011;50669;50.982;11.022;2023-10-13T13:41:19;3.35;;;1.85;;
28836;SDS011;50669;50.982;11.022;2023-10-13T13:43:46;1.63;;;1.52;;
28836;SDS011;50669;50.982;11.022;2023-10-13T13:46:20;2.78;;;2.00;;
28836;SDS011;50669;50.982;11.022;2023-10-13T13:48:50;2.15;;;1.70;;
28836;SDS011;50669;50.982;11.022;2023-10-13T13:51:22;1.60;;;1.40;;
28836;SDS011;50669;50.982;11.022;2023-10-13T13:53:52;1.63;;;1.52;;
28836;SDS011;50669;50.982;11.022;2023-10-13T13:56:19;2.05;;;1.42;;
28836;SDS011;50669;50.982;11.022;2023-10-13T13:58:45;1.92;;;1.70;;
28836;SDS011;50669;50.982;11.022;2023-10-13T14:01:11;1.70;;;1.60;;
28836;SDS011;50669;50.982;11.022;2023-10-13T14:03:39;2.00;;;1.80;;
28836;SDS011;50669;50.982;11.022;2023-10-13T14:06:19;1.75;;;1.65;;
28836;SDS011;50669;50.982;11.022;2023-10-13T14:08:52;1.77;;;1.67;;
28836;SDS011;50669;50.982;11.022;2023-10-13T14:11:31;2.40;;;1.75;;
28836;SDS011;50669;50.982;11.022;2023-10-13T14:14:03;1.65;;;1.55;;
28836;SDS011;50669;50.982;11.022;2023-10-13T14:16:53;1.70;;;1.40;;
28836;SDS011;50669;50.982;11.022;2023-10-13T14:19:30;2.00;;;1.80;;
28836;SDS011;50669;50.982;11.022;2023-10-13T14:22:05;3.03;;;1.58;;
28836;SDS011;50669;50.982;11.022;2023-10-13T14:24:37;1.70;;;1.50;;
28836;SDS011;50669;50.982;11.022;2023-10-13T14:27:08;1.88;;;1.48;;
28836;SDS011;50669;50.982;11.022;2023-10-13T14:29:41;2.10;;;1.88;;
28836;SDS011;50669;50.982;11.022;2023-10-13T14:32:11;2.85;;;1.73;;
28836;SDS011;50669;50.982;11.022;2023-10-13T14:34:39;1.73;;;1.50;;
28836;SDS011;50669;50.982;11.022;2023-10-13T14:37:19;2.55;;;1.63;;
28836;SDS011;50669;50.982;11.022;2023-10-13T14:39:54;1.92;;;1.75;;
28836;SDS011;50669;50.982;11.022;2023-10-13T14:42:26;1.73;;;1.63;;
28836;SDS011;50669;50.982;11.022;2023-10-13T14:44:53;1.70;;;1.52;;
28836;SDS011;50669;50.982;11.022;2023-10-13T14:47:25;1.50;;;1.40;;
28836;SDS011;50669;50.982;11.022;2023-10-13T14:49:56;1.77;;;1.67;;
28836;SDS011;50669;50.982;11.022;2023-10-13T14:52:25;1.77;;;1.67;;
28836;SDS011;50669;50.982;11.022;2023-10-13T14:54:51;2.63;;;2.03;;
28836;SDS011;50669;50.982;11.022;2023-10-13T14:57:23;1.65;;;1.55;;
28836;SDS011;50669;50.982;11.022;2023-10-13T14:59:54;1.80;;;1.40;;
28836;SDS011;50669;50.982;11.022;2023-10-13T15:02:23;2.38;;;1.88;;
28836;SDS011;50669;50.982;11.022;2023-10-13T15:04:48;2.15;;;1.75;;
28836;SDS011;50669;50.982;11.022;2023-10-13T15:07:16;2.05;;;1.85;;
28836;SDS011;50669;50.982;11.022;2023-10-13T15:09:43;1.60;;;1.45;;
28836;SDS011;50669;50.982;11.022;2023-10-13T15:12:10;1.63;;;1.52;;
28836;SDS011;50669;50.982;11.022;2023-10-13T15:14:36;2.55;;;1.85;;
28836;SDS011;50669;50.982;11.022;2023-10-13T15:17:08;3.03;;;1.77;;
28836;SDS011;50669;50.982;11.022;2023-10-13T15:19:34;1.65;;;1.55;;
28836;SDS011;50669;50.982;11.022;2023-10-13T15:22:08;1.70;;;1.60;;
28836;SDS011;50669;50.982;11.022;2023-10-13T15:24:50;1.58;;;1.27;;
28836;SDS011;50669;50.982;11.022;2023-10-13T15:27:33;2.58;;;1.67;;
28836;SDS011;50669;50.982;11.022;2023-10-13T15:30:06;2.13;;;1.92;;
28836;SDS011;50669;50.982;11.022;2023-10-13T15:32:45;2.10;;;1.50;;
28836;SDS011;50669;50.982;11.022;2023-10-13T15:35:13;1.60;;;1.50;;
28836;SDS011;50669;50.982;11.022;2023-10-13T15:37:43;1.90;;;1.55;;
28836;SDS011;50669;50.982;11.022;2023-10-13T15:40:12;2.03;;;1.80;;
28836;SDS011;50669;50.982;11.022;2023-10-13T15:42:42;2.35;;;1.92;;
28836;SDS011;50669;50.982;11.022;2023-10-13T15:45:10;1.75;;;1.60;;
28836;SDS011;50669;50.982;11.022;2023-10-13T15:47:45;1.70;;;1.25;;
28836;SDS011;50669;50.982;11.022;2023-10-13T15:50:13;2.03;;;1.83;;
28836;SDS011;50669;50.982;11.022;2023-10-13T15:52:41;2.00;;;1.65;;
28836;SDS011;50669;50.982;11.022;2023-10-13T15:55:13;1.77;;;1.60;;
28836;SDS011;50669;50.982;11.022;2023-10-13T15:57:40;1.95;;;1.65;;
28836;SDS011;50669;50.982;11.022;2023-10-13T16:00:07;1.65;;;1.55;;
28836;SDS011;50669;50.982;11.022;2023-10-13T16:02:55;1.85;;;1.50;;
28836;SDS011;50669;50.982;11.022;2023-10-13T16:05:28;1.90;;;1.80;;